Muckle Holm, United Kingdom
Current Conditions -  °F | °C
As of 2:20 PM on Thursday 23 Oct 2014 (Local Time) from EGPM Reporting Station
Few Clouds Few Clouds  
Wind Chill: 50°   Ceiling: Unl
Heat Index: 50°   Visibility: 6mi
Dew Point: 50°   Wind: 18mph
Humidity: 100%   Direction: 210°SSW
Pressure: 29.53"   Gusts: NA
Location:  60.58°N, 1.27°W
Report Text: EGPM 231320Z 21016KT 9999 FEW007 10/10 Q1000
Loading
Personal Weather Stations






























Interactive Weather Map New forecast layout! Learn more

10-Day Weather Forecast

Advertisements
Track Severe Weather on mobile